createdAt,value
2022-12-05T00:01:50.041Z,1.84
2022-12-05T00:04:53.010Z,1.86
2022-12-05T00:07:55.967Z,1.74
2022-12-05T00:10:58.886Z,1.68
2022-12-05T00:14:04.088Z,1.73
2022-12-05T00:17:07.023Z,1.70
2022-12-05T00:20:10.813Z,1.78
2022-12-05T00:23:13.929Z,1.82
2022-12-05T00:26:17.547Z,1.76
2022-12-05T00:29:21.749Z,1.82
2022-12-05T00:32:24.692Z,1.79
2022-12-05T00:35:27.564Z,1.79
2022-12-05T00:38:30.484Z,1.77
2022-12-05T00:41:33.374Z,1.83
2022-12-05T00:44:37.658Z,1.78
2022-12-05T00:47:40.668Z,1.71
2022-12-05T00:50:43.627Z,1.81
2022-12-05T00:53:47.554Z,1.80
2022-12-05T00:56:52.402Z,1.84
2022-12-05T00:59:56.918Z,1.87
2022-12-05T01:02:59.946Z,1.82
2022-12-05T01:06:03.428Z,1.68
2022-12-05T01:09:06.734Z,1.75
2022-12-05T01:12:09.625Z,1.74
2022-12-05T01:15:14.000Z,1.85
2022-12-05T01:18:16.956Z,1.79
2022-12-05T01:21:20.529Z,1.90
2022-12-05T01:24:25.000Z,1.90
2022-12-05T01:27:27.971Z,1.93
2022-12-05T01:30:32.295Z,1.87
2022-12-05T01:33:35.535Z,1.95
2022-12-05T01:36:39.437Z,1.93
2022-12-05T01:39:42.483Z,1.86
2022-12-05T01:42:45.493Z,1.77
2022-12-05T01:45:50.015Z,1.74
2022-12-05T01:48:58.765Z,1.78
2022-12-05T01:52:05.043Z,1.73
2022-12-05T01:55:12.981Z,1.74
2022-12-05T01:58:17.060Z,1.70
2022-12-05T02:01:21.635Z,1.78
2022-12-05T02:04:24.606Z,1.78
2022-12-05T02:07:28.299Z,1.76
2022-12-05T02:10:37.160Z,1.75
2022-12-05T02:14:01.399Z,1.71
2022-12-05T02:17:16.004Z,1.65
2022-12-05T02:20:36.085Z,1.69
2022-12-05T02:24:02.016Z,1.68
2022-12-05T02:27:20.599Z,1.66
2022-12-05T02:30:26.088Z,1.67
2022-12-05T02:33:37.440Z,1.68
2022-12-05T02:36:45.673Z,1.70
2022-12-05T02:39:57.909Z,1.70
2022-12-05T02:43:09.229Z,1.73
2022-12-05T02:46:18.416Z,1.75
2022-12-05T02:49:24.442Z,1.78
2022-12-05T02:52:29.036Z,1.85
2022-12-05T02:55:33.485Z,1.77
2022-12-05T02:58:43.135Z,1.75
2022-12-05T03:01:49.790Z,1.71
2022-12-05T03:04:52.763Z,1.81
2022-12-05T03:07:59.432Z,1.81
2022-12-05T03:11:04.240Z,1.80
2022-12-05T03:14:12.034Z,1.80
2022-12-05T03:17:20.099Z,1.83
2022-12-05T03:20:28.731Z,1.80
2022-12-05T03:23:35.502Z,1.85
2022-12-05T03:26:48.047Z,1.90
2022-12-05T03:29:55.490Z,1.92
2022-12-05T03:33:07.347Z,1.88
2022-12-05T03:36:15.936Z,1.80
2022-12-05T03:39:24.675Z,1.78
2022-12-05T03:42:32.255Z,1.79
2022-12-05T03:45:43.384Z,1.87
2022-12-05T03:48:55.014Z,1.83
2022-12-05T03:52:05.396Z,1.85
2022-12-05T03:55:13.569Z,1.72
2022-12-05T03:58:23.676Z,1.83
2022-12-05T04:01:29.801Z,1.86
2022-12-05T04:04:39.103Z,1.82
2022-12-05T04:07:45.350Z,1.85
2022-12-05T04:10:51.302Z,1.81
2022-12-05T04:13:56.901Z,1.90
2022-12-05T04:17:06.425Z,1.82
2022-12-05T04:20:32.760Z,1.70
2022-12-05T04:23:36.162Z,1.77
2022-12-05T04:26:44.461Z,1.83
2022-12-05T04:29:56.059Z,1.77
2022-12-05T04:33:03.716Z,1.74
2022-12-05T04:36:14.216Z,1.69
2022-12-05T04:39:22.371Z,1.64
2022-12-05T04:42:29.520Z,1.73
2022-12-05T04:45:35.323Z,1.73
2022-12-05T04:48:41.950Z,1.72
2022-12-05T04:51:48.923Z,1.70
2022-12-05T04:54:56.116Z,1.60
2022-12-05T04:58:07.315Z,1.70
2022-12-05T05:01:15.570Z,1.81
2022-12-05T05:04:22.689Z,1.87
2022-12-05T05:07:26.952Z,1.90
2022-12-05T05:10:36.412Z,1.93
2022-12-05T05:13:39.417Z,2.01
2022-12-05T05:16:43.526Z,1.99
2022-12-05T05:19:46.385Z,1.95
2022-12-05T05:22:50.795Z,1.98
2022-12-05T05:25:54.852Z,1.76
2022-12-05T05:28:59.139Z,1.87
2022-12-05T05:32:02.264Z,1.86
2022-12-05T05:35:05.390Z,1.81
2022-12-05T05:38:09.669Z,1.92
2022-12-05T05:41:14.991Z,1.93
2022-12-05T05:44:17.825Z,2.01
2022-12-05T05:47:20.683Z,1.89
2022-12-05T05:50:23.505Z,1.82
2022-12-05T05:53:27.756Z,1.84
2022-12-05T05:56:31.123Z,1.81
2022-12-05T05:59:34.547Z,1.83
2022-12-05T06:02:38.237Z,1.95
2022-12-05T06:05:41.193Z,1.97
2022-12-05T06:08:46.337Z,1.88
2022-12-05T06:11:49.193Z,1.92
2022-12-05T06:14:52.627Z,1.92
2022-12-05T06:17:55.728Z,1.96
2022-12-05T06:21:00.063Z,1.83
2022-12-05T06:24:04.664Z,1.86
2022-12-05T06:27:07.567Z,1.83
2022-12-05T06:30:11.349Z,1.88
2022-12-05T06:33:14.478Z,1.84
2022-12-05T06:36:19.819Z,1.94
2022-12-05T06:39:24.102Z,1.88
2022-12-05T06:42:27.114Z,1.87
2022-12-05T06:45:30.032Z,1.89
2022-12-05T06:48:33.001Z,1.94
2022-12-05T06:51:36.220Z,1.97
2022-12-05T06:54:40.481Z,2.03
2022-12-05T06:57:43.366Z,2.01
2022-12-05T07:01:03.918Z,2.07
2022-12-05T07:04:08.607Z,2.09
2022-12-05T07:07:13.200Z,2.10
2022-12-05T07:10:17.555Z,2.12
2022-12-05T07:13:20.791Z,2.14
2022-12-05T07:16:24.322Z,2.15
2022-12-05T07:19:27.208Z,2.19
2022-12-05T07:22:30.197Z,2.23
2022-12-05T07:25:34.454Z,2.24
2022-12-05T07:28:37.636Z,2.27
2022-12-05T07:31:40.559Z,2.32
2022-12-05T07:34:43.796Z,2.36
2022-12-05T07:37:46.638Z,2.42
2022-12-05T07:40:50.852Z,2.43
2022-12-05T07:43:55.012Z,2.46
2022-12-05T07:46:58.443Z,2.48
2022-12-05T07:50:01.368Z,2.56
2022-12-05T07:53:05.573Z,2.58
2022-12-05T07:56:11.012Z,2.65
2022-12-05T07:59:14.013Z,2.68
2022-12-05T08:02:16.961Z,2.70
2022-12-05T08:05:19.844Z,2.74
2022-12-05T08:08:23.098Z,2.79
2022-12-05T08:11:30.010Z,2.84
2022-12-05T08:14:32.963Z,2.94
2022-12-05T08:17:35.816Z,2.94
2022-12-05T08:20:38.649Z,3.01
2022-12-05T08:23:41.706Z,3.03
2022-12-05T08:26:45.866Z,3.10
2022-12-05T08:29:48.924Z,3.12
2022-12-05T08:32:51.779Z,3.20
2022-12-05T08:35:54.642Z,3.21
2022-12-05T08:38:58.669Z,3.26
2022-12-05T08:42:03.017Z,3.26
2022-12-05T08:45:06.817Z,3.31
2022-12-05T08:48:09.726Z,3.35
2022-12-05T08:51:13.638Z,3.38
2022-12-05T08:54:16.836Z,3.44
2022-12-05T08:57:21.053Z,3.48
2022-12-05T09:00:24.048Z,3.50
2022-12-05T09:03:28.380Z,3.56
2022-12-05T09:06:32.107Z,3.61
2022-12-05T09:09:35.601Z,3.65
2022-12-05T09:12:40.175Z,3.70
2022-12-05T09:15:43.142Z,3.74
2022-12-05T09:18:46.710Z,3.79
2022-12-05T09:21:49.585Z,3.83
2022-12-05T09:24:52.504Z,3.89
2022-12-05T09:27:56.743Z,3.98
2022-12-05T09:31:01.420Z,3.93
2022-12-05T09:34:04.385Z,4.01
2022-12-05T09:37:30.899Z,4.01
2022-12-05T09:40:43.281Z,4.00
2022-12-05T09:43:55.050Z,4.00
2022-12-05T09:47:01.804Z,4.06
2022-12-05T09:50:14.567Z,4.04
2022-12-05T09:53:27.382Z,4.06
2022-12-05T09:56:31.911Z,4.09
2022-12-05T09:59:36.510Z,4.15
2022-12-05T10:02:48.788Z,4.17
2022-12-05T10:06:01.499Z,4.20
2022-12-05T10:09:22.505Z,4.24
2022-12-05T10:12:49.038Z,4.24
2022-12-05T10:15:57.664Z,4.28
2022-12-05T10:19:07.113Z,4.31
2022-12-05T10:22:20.214Z,4.31
2022-12-05T10:25:27.096Z,4.33
2022-12-05T10:28:34.807Z,4.37
2022-12-05T10:31:40.538Z,4.38
2022-12-05T10:34:45.386Z,4.38
2022-12-05T10:37:51.049Z,4.44
2022-12-05T10:40:58.154Z,4.43
2022-12-05T10:44:01.153Z,4.46
2022-12-05T10:47:06.329Z,4.47
2022-12-05T10:50:23.908Z,4.50
2022-12-05T10:53:29.619Z,4.51
2022-12-05T10:56:40.299Z,4.53
2022-12-05T10:59:49.057Z,4.54
2022-12-05T11:02:54.449Z,4.54
2022-12-05T11:06:00.500Z,4.48
2022-12-05T11:09:14.147Z,4.50
2022-12-05T11:12:21.550Z,4.49
2022-12-05T11:15:27.680Z,4.47
2022-12-05T11:18:34.589Z,4.47
2022-12-05T11:21:43.625Z,4.45
2022-12-05T11:24:46.548Z,4.46
2022-12-05T11:27:49.424Z,4.43
2022-12-05T11:30:59.419Z,4.43
2022-12-05T11:34:12.905Z,4.44
2022-12-05T11:37:23.536Z,4.39
2022-12-05T11:40:38.427Z,4.40
2022-12-05T11:43:55.504Z,4.39
2022-12-05T11:47:12.083Z,4.35
2022-12-05T11:50:33.126Z,4.37
2022-12-05T11:53:49.260Z,4.33
2022-12-05T11:56:58.510Z,4.33
2022-12-05T12:00:12.880Z,4.35
2022-12-05T12:03:37.915Z,4.35
2022-12-05T12:06:53.134Z,4.36
2022-12-05T12:10:09.796Z,4.38
2022-12-05T12:13:29.315Z,4.39
2022-12-05T12:16:41.329Z,4.38
2022-12-05T12:20:11.772Z,4.41
2022-12-05T12:23:31.081Z,4.44
2022-12-05T12:26:47.839Z,4.35
2022-12-05T12:30:04.385Z,4.33
2022-12-05T12:33:25.536Z,4.25
2022-12-05T12:36:39.020Z,4.28
2022-12-05T12:39:51.991Z,4.18
2022-12-05T12:43:06.778Z,4.09
2022-12-05T12:46:17.465Z,4.09
2022-12-05T12:49:49.767Z,4.01
2022-12-05T12:53:08.420Z,3.98
2022-12-05T12:56:24.717Z,4.00
2022-12-05T12:59:55.136Z,4.01
2022-12-05T13:03:05.476Z,4.00
2022-12-05T13:06:14.745Z,3.97
2022-12-05T13:09:22.637Z,3.97
2022-12-05T13:12:30.478Z,3.93
2022-12-05T13:15:37.593Z,3.95
2022-12-05T13:18:40.632Z,3.95
2022-12-05T13:21:43.909Z,3.92
2022-12-05T13:24:47.020Z,3.95
2022-12-05T13:28:00.033Z,3.89
2022-12-05T13:31:04.939Z,3.94
2022-12-05T13:34:29.252Z,3.93
2022-12-05T13:37:49.987Z,3.94
2022-12-05T13:41:12.608Z,3.99
2022-12-05T13:44:30.598Z,4.05
2022-12-05T13:47:37.100Z,4.07
2022-12-05T13:50:49.446Z,4.07
2022-12-05T13:54:02.336Z,4.14
2022-12-05T13:57:05.981Z,4.18
2022-12-05T14:00:23.121Z,4.19
2022-12-05T14:03:57.217Z,4.17
2022-12-05T14:07:00.051Z,4.17
2022-12-05T14:10:02.910Z,4.20
2022-12-05T14:13:42.677Z,4.21
2022-12-05T14:16:47.932Z,4.19
2022-12-05T14:20:01.018Z,4.24
2022-12-05T14:23:19.333Z,4.20
2022-12-05T14:26:42.015Z,4.29
2022-12-05T14:29:57.820Z,4.32
2022-12-05T14:33:03.964Z,4.28
2022-12-05T14:36:09.150Z,4.17
2022-12-05T14:39:22.370Z,4.15
2022-12-05T14:42:30.576Z,4.12
2022-12-05T14:45:37.286Z,4.12
2022-12-05T14:48:48.072Z,4.13
2022-12-05T14:51:58.182Z,3.99
2022-12-05T14:55:06.926Z,3.99
2022-12-05T14:58:18.062Z,3.95
2022-12-05T15:01:24.289Z,3.92
2022-12-05T15:04:37.994Z,3.97
2022-12-05T15:07:41.570Z,3.98
2022-12-05T15:10:47.218Z,3.97
2022-12-05T15:13:50.853Z,3.93
2022-12-05T15:16:57.161Z,3.94
2022-12-05T15:20:09.499Z,3.93
2022-12-05T15:23:41.179Z,3.81
2022-12-05T15:26:48.945Z,3.84
2022-12-05T15:29:56.579Z,3.85
2022-12-05T15:33:00.411Z,3.72
2022-12-05T15:36:05.498Z,3.68
2022-12-05T15:39:19.173Z,3.58
2022-12-05T15:42:29.836Z,3.69
2022-12-05T15:45:33.362Z,3.63
2022-12-05T15:48:36.347Z,3.52
2022-12-05T15:51:40.744Z,3.55
2022-12-05T15:54:45.055Z,3.51
2022-12-05T15:57:54.192Z,3.44
2022-12-05T16:01:01.704Z,3.56
2022-12-05T16:04:09.454Z,3.53
2022-12-05T16:07:15.462Z,3.50
2022-12-05T16:10:23.456Z,3.58
2022-12-05T16:13:29.224Z,3.48
2022-12-05T16:16:36.033Z,3.35
2022-12-05T16:19:39.724Z,3.45
2022-12-05T16:22:48.973Z,3.36
2022-12-05T16:25:52.383Z,3.37
2022-12-05T16:28:59.751Z,3.41
2022-12-05T16:32:05.357Z,3.35
2022-12-05T16:35:36.968Z,3.29
2022-12-05T16:38:43.335Z,3.31
2022-12-05T16:41:46.467Z,3.32
2022-12-05T16:45:02.247Z,3.29
2022-12-05T16:48:14.917Z,3.26
2022-12-05T16:51:20.117Z,3.24
2022-12-05T16:54:24.464Z,3.26
2022-12-05T16:57:27.391Z,3.21
2022-12-05T17:00:31.259Z,3.23
2022-12-05T17:03:35.967Z,3.28
2022-12-05T17:06:39.371Z,3.29
2022-12-05T17:09:43.630Z,3.27
2022-12-05T17:12:47.754Z,3.27
2022-12-05T17:15:51.285Z,3.31
2022-12-05T17:18:54.870Z,3.26
2022-12-05T17:21:57.790Z,3.29
2022-12-05T17:25:02.096Z,3.27
2022-12-05T17:28:05.326Z,3.24
2022-12-05T17:31:10.884Z,3.21
2022-12-05T17:34:16.854Z,3.19
2022-12-05T17:37:19.719Z,3.24
2022-12-05T17:40:24.182Z,3.27
2022-12-05T17:43:27.106Z,3.22
2022-12-05T17:46:30.074Z,3.25
2022-12-05T17:49:32.992Z,3.22
2022-12-05T17:52:36.734Z,3.23
2022-12-05T17:55:41.058Z,3.24
2022-12-05T17:58:44.262Z,3.23
2022-12-05T18:01:47.218Z,3.18
2022-12-05T18:04:50.188Z,3.19
2022-12-05T18:07:53.299Z,3.17
2022-12-05T18:10:58.585Z,3.17
2022-12-05T18:14:01.849Z,3.28
2022-12-05T18:17:05.086Z,3.23
2022-12-05T18:20:10.036Z,3.31
2022-12-05T18:23:13.457Z,3.37
2022-12-05T18:26:18.188Z,3.25
2022-12-05T18:29:21.053Z,3.22
2022-12-05T18:32:24.295Z,3.35
2022-12-05T18:35:41.154Z,3.36
2022-12-05T18:38:49.726Z,3.22
2022-12-05T18:41:54.492Z,3.08
2022-12-05T18:44:57.827Z,3.16
2022-12-05T18:48:16.328Z,3.16
2022-12-05T18:51:25.152Z,3.05
2022-12-05T18:54:28.097Z,3.18
2022-12-05T18:57:32.656Z,3.16
2022-12-05T19:00:38.477Z,3.19
2022-12-05T19:03:41.692Z,3.15
2022-12-05T19:06:51.520Z,3.14
2022-12-05T19:09:54.800Z,3.04
2022-12-05T19:13:00.783Z,3.07
2022-12-05T19:16:04.272Z,3.13
2022-12-05T19:19:10.024Z,3.14
2022-12-05T19:22:12.930Z,3.04
2022-12-05T19:25:15.979Z,3.08
2022-12-05T19:28:20.318Z,3.00
2022-12-05T19:31:25.731Z,3.05
2022-12-05T19:34:29.139Z,3.02
2022-12-05T19:37:32.162Z,3.07
2022-12-05T19:40:35.184Z,3.08
2022-12-05T19:43:40.308Z,3.04
2022-12-05T19:46:43.516Z,3.04
2022-12-05T19:49:46.466Z,3.04
2022-12-05T19:52:49.474Z,3.00
2022-12-05T19:56:01.484Z,3.06
2022-12-05T19:59:07.060Z,3.02
2022-12-05T20:02:10.042Z,3.01
2022-12-05T20:05:14.736Z,3.02
2022-12-05T20:08:17.803Z,3.08
2022-12-05T20:11:24.756Z,3.08
2022-12-05T20:14:29.896Z,3.11
2022-12-05T20:17:35.907Z,3.11
2022-12-05T20:20:38.863Z,3.08
2022-12-05T20:23:42.198Z,3.13
2022-12-05T20:26:46.400Z,3.18
2022-12-05T20:29:50.642Z,3.16
2022-12-05T20:32:53.595Z,3.12
2022-12-05T20:36:00.761Z,3.08
2022-12-05T20:39:06.505Z,3.07
2022-12-05T20:42:09.801Z,3.12
2022-12-05T20:45:21.385Z,3.11
2022-12-05T20:48:26.115Z,3.01
2022-12-05T20:51:31.356Z,3.00
2022-12-05T20:54:34.365Z,3.05
2022-12-05T20:57:40.564Z,3.04
2022-12-05T21:00:46.256Z,3.14
2022-12-05T21:03:50.895Z,3.18
2022-12-05T21:06:55.804Z,3.22
2022-12-05T21:10:03.300Z,3.15
2022-12-05T21:13:09.766Z,3.14
2022-12-05T21:16:16.546Z,3.23
2022-12-05T21:19:20.281Z,3.16
2022-12-05T21:22:25.280Z,3.21
2022-12-05T21:25:28.219Z,3.18
2022-12-05T21:28:34.647Z,3.20
2022-12-05T21:31:40.670Z,3.19
2022-12-05T21:34:44.001Z,3.16
2022-12-05T21:37:46.994Z,3.22
2022-12-05T21:40:49.998Z,3.18
2022-12-05T21:43:55.269Z,3.13
2022-12-05T21:47:02.659Z,3.21
2022-12-05T21:50:06.972Z,3.24
2022-12-05T21:53:10.378Z,3.22
2022-12-05T21:56:18.574Z,3.26
2022-12-05T21:59:21.674Z,3.20
2022-12-05T22:02:28.388Z,3.14
2022-12-05T22:05:31.622Z,3.19
2022-12-05T22:08:35.316Z,3.03
2022-12-05T22:11:40.535Z,3.04
2022-12-05T22:14:43.461Z,3.10
2022-12-05T22:17:48.416Z,3.10
2022-12-05T22:20:56.593Z,3.07
2022-12-05T22:23:59.517Z,3.08
2022-12-05T22:27:02.405Z,3.11
2022-12-05T22:30:06.435Z,3.09
2022-12-05T22:33:10.670Z,2.99
2022-12-05T22:36:15.674Z,3.03
2022-12-05T22:39:18.624Z,3.05
2022-12-05T22:42:21.466Z,3.16
2022-12-05T22:45:24.378Z,3.00
2022-12-05T22:48:28.739Z,3.02
2022-12-05T22:51:32.584Z,2.98
2022-12-05T22:54:35.487Z,3.03
2022-12-05T22:57:38.437Z,3.04
2022-12-05T23:00:41.699Z,3.05
2022-12-05T23:03:47.921Z,2.98
2022-12-05T23:06:50.948Z,2.96
2022-12-05T23:09:53.901Z,2.98
2022-12-05T23:12:56.919Z,3.01
2022-12-05T23:16:00.120Z,3.04
2022-12-05T23:19:06.243Z,3.03
2022-12-05T23:22:09.230Z,3.03
2022-12-05T23:25:12.231Z,3.01
2022-12-05T23:28:15.230Z,3.03
2022-12-05T23:31:18.516Z,3.06
2022-12-05T23:34:22.951Z,3.06
2022-12-05T23:37:26.014Z,3.06
2022-12-05T23:40:29.000Z,3.08
2022-12-05T23:43:33.650Z,2.98
2022-12-05T23:46:36.727Z,2.97
2022-12-05T23:49:41.097Z,2.93
2022-12-05T23:52:44.077Z,2.89
2022-12-05T23:55:47.070Z,2.87
2022-12-05T23:58:50.158Z,2.83
